EZY39H EGGW-EHAM
Flight info
| Callsign | EZY39H |
|---|---|
| Flight time | 0h 42m |
| Altitude | 25000 |
| Route | MATCH2C MATCH Q295 BRAIN M197 REDFA REDFA1A |
| Aircraft | A320/M-VGDW/C |
Departure
| Time | 2026-05-07 16:25 |
|---|---|
| Airport | London Luton Airport (EGGW) |
Arrival
| Time | 2026-05-07 17:07 |
|---|---|
| Airport | Amsterdam Airport Schiphol (EHAM) |
| Time | Latitude | Longitude | Altitude | Speed | Heading |
|---|---|---|---|---|---|
| 2026-05-07 15:53 | 51.87989 | -0.37867 | 534 ft | 0 kts | 128° |
| 2026-05-07 15:56 | 51.87989 | -0.37868 | 534 ft | 0 kts | 128° |
| 2026-05-07 16:08 | 51.87991 | -0.37871 | 534 ft | 0 kts | 128° |
| 2026-05-07 16:15 | 51.87997 | -0.37883 | 534 ft | 3 kts | 133° |
| 2026-05-07 16:16 | 51.88012 | -0.37905 | 534 ft | 3 kts | 153° |
| 2026-05-07 16:16 | 51.88030 | -0.37914 | 534 ft | 3 kts | 191° |
| 2026-05-07 16:16 | 51.88041 | -0.37908 | 534 ft | 0 kts | 218° |
| 2026-05-07 16:20 | 51.88005 | -0.37954 | 534 ft | 11 kts | 218° |
| 2026-05-07 16:20 | 51.87945 | -0.38014 | 534 ft | 9 kts | 198° |
| 2026-05-07 16:21 | 51.87888 | -0.38016 | 534 ft | 8 kts | 165° |
| 2026-05-07 16:21 | 51.87834 | -0.37974 | 534 ft | 12 kts | 143° |
| 2026-05-07 16:21 | 51.87783 | -0.37849 | 534 ft | 14 kts | 115° |
| 2026-05-07 16:21 | 51.87739 | -0.37697 | 534 ft | 16 kts | 115° |
| 2026-05-07 16:22 | 51.87691 | -0.37530 | 534 ft | 17 kts | 118° |
| 2026-05-07 16:22 | 51.87595 | -0.37450 | 536 ft | 16 kts | 178° |
| 2026-05-07 16:22 | 51.87505 | -0.37541 | 536 ft | 17 kts | 250° |
| 2026-05-07 16:22 | 51.87478 | -0.37711 | 536 ft | 15 kts | 254° |
| 2026-05-07 16:23 | 51.87451 | -0.37858 | 536 ft | 13 kts | 253° |
| 2026-05-07 16:23 | 51.87425 | -0.37989 | 536 ft | 14 kts | 246° |
| 2026-05-07 16:23 | 51.87337 | -0.38094 | 534 ft | 18 kts | 203° |
| 2026-05-07 16:23 | 51.87263 | -0.38092 | 532 ft | 10 kts | 137° |
| 2026-05-07 16:24 | 51.87262 | -0.38009 | 533 ft | 0 kts | 76° |
| 2026-05-07 16:24 | 51.87301 | -0.37774 | 537 ft | 58 kts | 75° |
| 2026-05-07 16:25 | 51.87479 | -0.36746 | 541 ft | 126 kts | 74° |
| 2026-05-07 16:25 | 51.87742 | -0.35132 | 780 ft | 158 kts | 78° |
| 2026-05-07 16:25 | 51.88019 | -0.33403 | 1485 ft | 164 kts | 75° |
| 2026-05-07 16:25 | 51.88330 | -0.31564 | 2092 ft | 176 kts | 73° |
| 2026-05-07 16:26 | 51.88681 | -0.29611 | 2614 ft | 185 kts | 73° |
| 2026-05-07 16:26 | 51.89064 | -0.27585 | 3175 ft | 191 kts | 72° |
| 2026-05-07 16:26 | 51.89462 | -0.25511 | 3757 ft | 194 kts | 75° |
| 2026-05-07 16:26 | 51.89568 | -0.23334 | 4354 ft | 196 kts | 101° |
| 2026-05-07 16:27 | 51.89054 | -0.21310 | 4941 ft | 198 kts | 127° |
| 2026-05-07 16:27 | 51.88018 | -0.19816 | 5389 ft | 205 kts | 154° |
| 2026-05-07 16:27 | 51.86691 | -0.18889 | 5915 ft | 211 kts | 159° |
| 2026-05-07 16:27 | 51.85274 | -0.17988 | 6419 ft | 226 kts | 160° |
| 2026-05-07 16:28 | 51.83758 | -0.17033 | 6889 ft | 244 kts | 159° |
| 2026-05-07 16:28 | 51.82119 | -0.15905 | 7310 ft | 265 kts | 157° |
| 2026-05-07 16:28 | 51.80408 | -0.14665 | 8040 ft | 273 kts | 156° |
| 2026-05-07 16:28 | 51.78661 | -0.13382 | 8835 ft | 278 kts | 156° |
| 2026-05-07 16:29 | 51.76932 | -0.11918 | 9645 ft | 285 kts | 143° |
| 2026-05-07 16:29 | 51.75684 | -0.09417 | 10374 ft | 293 kts | 114° |
| 2026-05-07 16:29 | 51.75325 | -0.06219 | 11047 ft | 301 kts | 88° |
| 2026-05-07 16:29 | 51.75544 | -0.02726 | 11272 ft | 325 kts | 83° |
| 2026-05-07 16:30 | 51.75859 | 0.01001 | 11583 ft | 344 kts | 82° |
| 2026-05-07 16:30 | 51.76211 | 0.04864 | 12227 ft | 350 kts | 82° |
| 2026-05-07 16:30 | 51.76566 | 0.08774 | 12953 ft | 355 kts | 82° |
| 2026-05-07 16:30 | 51.76916 | 0.12744 | 13661 ft | 359 kts | 83° |
| 2026-05-07 16:31 | 51.77257 | 0.16754 | 14311 ft | 363 kts | 83° |
| 2026-05-07 16:31 | 51.77591 | 0.20815 | 14918 ft | 367 kts | 83° |
| 2026-05-07 16:31 | 51.77923 | 0.24922 | 15544 ft | 371 kts | 83° |
| 2026-05-07 16:31 | 51.78258 | 0.29070 | 16161 ft | 374 kts | 83° |
| 2026-05-07 16:32 | 51.78595 | 0.33261 | 16774 ft | 378 kts | 83° |
| 2026-05-07 16:32 | 51.78935 | 0.37490 | 17385 ft | 382 kts | 83° |
| 2026-05-07 16:32 | 51.79275 | 0.41762 | 17998 ft | 385 kts | 83° |
| 2026-05-07 16:32 | 51.79617 | 0.46075 | 18548 ft | 389 kts | 83° |
| 2026-05-07 16:33 | 51.79961 | 0.50427 | 19074 ft | 392 kts | 83° |
| 2026-05-07 16:33 | 51.80305 | 0.54817 | 19586 ft | 395 kts | 83° |
| 2026-05-07 16:33 | 51.80649 | 0.59243 | 20112 ft | 398 kts | 83° |
| 2026-05-07 16:33 | 51.80994 | 0.63694 | 20623 ft | 401 kts | 82° |
| 2026-05-07 16:34 | 51.81556 | 0.68122 | 21111 ft | 404 kts | 76° |
| 2026-05-07 16:34 | 51.82245 | 0.72545 | 21616 ft | 407 kts | 76° |
| 2026-05-07 16:34 | 51.82937 | 0.76999 | 22108 ft | 410 kts | 76° |
| 2026-05-07 16:34 | 51.83631 | 0.81488 | 22579 ft | 413 kts | 76° |
| 2026-05-07 16:35 | 51.84372 | 0.85994 | 23044 ft | 416 kts | 74° |
| 2026-05-07 16:35 | 51.85179 | 0.90508 | 23506 ft | 419 kts | 73° |
| 2026-05-07 16:35 | 51.86028 | 0.95043 | 23907 ft | 423 kts | 73° |
| 2026-05-07 16:35 | 51.86893 | 0.99603 | 24302 ft | 425 kts | 73° |
| 2026-05-07 16:36 | 51.87757 | 1.04186 | 24705 ft | 427 kts | 73° |
| 2026-05-07 16:36 | 51.88612 | 1.08807 | 25004 ft | 429 kts | 73° |
| 2026-05-07 16:36 | 51.89450 | 1.13412 | 25077 ft | 424 kts | 73° |
| 2026-05-07 16:36 | 51.90266 | 1.17971 | 25087 ft | 420 kts | 74° |
| 2026-05-07 16:37 | 51.91059 | 1.22448 | 25086 ft | 418 kts | 74° |
| 2026-05-07 16:37 | 51.91861 | 1.26974 | 25087 ft | 418 kts | 74° |
| 2026-05-07 16:37 | 51.92667 | 1.31501 | 25087 ft | 417 kts | 74° |
| 2026-05-07 16:37 | 51.93475 | 1.36020 | 25086 ft | 417 kts | 73° |
| 2026-05-07 16:38 | 51.94281 | 1.40528 | 25089 ft | 417 kts | 74° |
| 2026-05-07 16:38 | 51.95086 | 1.45048 | 25086 ft | 417 kts | 74° |
| 2026-05-07 16:38 | 51.95886 | 1.49573 | 25090 ft | 417 kts | 74° |
| 2026-05-07 16:38 | 51.96680 | 1.54099 | 25090 ft | 417 kts | 74° |
| 2026-05-07 16:39 | 51.97473 | 1.58617 | 25091 ft | 417 kts | 74° |
| 2026-05-07 16:39 | 51.98264 | 1.63140 | 25088 ft | 417 kts | 74° |
| 2026-05-07 16:39 | 51.99056 | 1.67669 | 25087 ft | 417 kts | 74° |
| 2026-05-07 16:39 | 51.99825 | 1.72206 | 25085 ft | 417 kts | 75° |
| 2026-05-07 16:40 | 52.00548 | 1.76756 | 25083 ft | 417 kts | 76° |
| 2026-05-07 16:40 | 52.01245 | 1.81320 | 25083 ft | 417 kts | 76° |
| 2026-05-07 16:40 | 52.01935 | 1.85898 | 25083 ft | 417 kts | 76° |
| 2026-05-07 16:40 | 52.02624 | 1.90466 | 25083 ft | 417 kts | 76° |
| 2026-05-07 16:41 | 52.03317 | 1.95036 | 25082 ft | 417 kts | 76° |
| 2026-05-07 16:41 | 52.04014 | 1.99604 | 25083 ft | 417 kts | 76° |
| 2026-05-07 16:41 | 52.04712 | 2.04165 | 25084 ft | 417 kts | 76° |
| 2026-05-07 16:41 | 52.05415 | 2.08738 | 25080 ft | 417 kts | 76° |
| 2026-05-07 16:42 | 52.06115 | 2.13297 | 25083 ft | 417 kts | 76° |
| 2026-05-07 16:42 | 52.06813 | 2.17870 | 25081 ft | 417 kts | 76° |
| 2026-05-07 16:42 | 52.07505 | 2.22443 | 25084 ft | 417 kts | 76° |
| 2026-05-07 16:42 | 52.08197 | 2.27012 | 25072 ft | 412 kts | 76° |
| 2026-05-07 16:43 | 52.08874 | 2.31481 | 24747 ft | 403 kts | 76° |
| 2026-05-07 16:43 | 52.09536 | 2.35893 | 24297 ft | 399 kts | 76° |
| 2026-05-07 16:43 | 52.10189 | 2.40259 | 23825 ft | 397 kts | 76° |
| 2026-05-07 16:43 | 52.10829 | 2.44553 | 23299 ft | 394 kts | 76° |
| 2026-05-07 16:44 | 52.11642 | 2.48790 | 22773 ft | 391 kts | 67° |
| 2026-05-07 16:44 | 52.12879 | 2.52697 | 22280 ft | 387 kts | 58° |
| 2026-05-07 16:44 | 52.14260 | 2.56448 | 21778 ft | 385 kts | 58° |
| 2026-05-07 16:44 | 52.15622 | 2.60187 | 21315 ft | 382 kts | 59° |
| 2026-05-07 16:45 | 52.16963 | 2.63902 | 20852 ft | 380 kts | 59° |
| 2026-05-07 16:45 | 52.18296 | 2.67605 | 20403 ft | 377 kts | 59° |
| 2026-05-07 16:45 | 52.19617 | 2.71280 | 19955 ft | 375 kts | 59° |
| 2026-05-07 16:45 | 52.20932 | 2.74938 | 19519 ft | 373 kts | 59° |
| 2026-05-07 16:46 | 52.22240 | 2.78579 | 19102 ft | 371 kts | 59° |
| 2026-05-07 16:46 | 52.23538 | 2.82192 | 18693 ft | 369 kts | 58° |
| 2026-05-07 16:46 | 52.24829 | 2.85789 | 18267 ft | 366 kts | 58° |
| 2026-05-07 16:46 | 52.26117 | 2.89372 | 17807 ft | 364 kts | 58° |
| 2026-05-07 16:47 | 52.27390 | 2.92931 | 17376 ft | 362 kts | 58° |
| 2026-05-07 16:47 | 52.28653 | 2.96476 | 16937 ft | 360 kts | 59° |
| 2026-05-07 16:47 | 52.29906 | 2.99999 | 16519 ft | 357 kts | 58° |
| 2026-05-07 16:47 | 52.31154 | 3.03499 | 16105 ft | 355 kts | 58° |
| 2026-05-07 16:48 | 52.32395 | 3.06975 | 15707 ft | 353 kts | 58° |
| 2026-05-07 16:48 | 52.33626 | 3.10428 | 15310 ft | 351 kts | 58° |
| 2026-05-07 16:48 | 52.34846 | 3.13867 | 14927 ft | 348 kts | 58° |
| 2026-05-07 16:48 | 52.36040 | 3.17240 | 14559 ft | 346 kts | 58° |
| 2026-05-07 16:49 | 52.37242 | 3.20637 | 14198 ft | 343 kts | 58° |
| 2026-05-07 16:49 | 52.38435 | 3.24012 | 13836 ft | 341 kts | 58° |
| 2026-05-07 16:49 | 52.39617 | 3.27365 | 13423 ft | 338 kts | 59° |
| 2026-05-07 16:49 | 52.40788 | 3.30691 | 13025 ft | 336 kts | 59° |
| 2026-05-07 16:50 | 52.41951 | 3.33996 | 12632 ft | 333 kts | 59° |
| 2026-05-07 16:50 | 52.43106 | 3.37274 | 12246 ft | 331 kts | 58° |
| 2026-05-07 16:50 | 52.44237 | 3.40535 | 11868 ft | 328 kts | 62° |
| 2026-05-07 16:50 | 52.45070 | 3.44001 | 11489 ft | 326 kts | 74° |
| 2026-05-07 16:51 | 52.45589 | 3.47614 | 11088 ft | 324 kts | 76° |
| 2026-05-07 16:51 | 52.46095 | 3.51200 | 10728 ft | 322 kts | 76° |
| 2026-05-07 16:51 | 52.46603 | 3.54756 | 10370 ft | 319 kts | 76° |
| 2026-05-07 16:51 | 52.47111 | 3.58278 | 10036 ft | 315 kts | 76° |
| 2026-05-07 16:52 | 52.47608 | 3.61714 | 9911 ft | 304 kts | 76° |
| 2026-05-07 16:52 | 52.48085 | 3.65034 | 9769 ft | 294 kts | 76° |
| 2026-05-07 16:52 | 52.48548 | 3.68264 | 9490 ft | 289 kts | 76° |
| 2026-05-07 16:52 | 52.49001 | 3.71452 | 9162 ft | 285 kts | 76° |
| 2026-05-07 16:53 | 52.49451 | 3.74612 | 8818 ft | 283 kts | 76° |
| 2026-05-07 16:53 | 52.49892 | 3.77738 | 8470 ft | 280 kts | 76° |
| 2026-05-07 16:53 | 52.50317 | 3.80791 | 8139 ft | 277 kts | 76° |
| 2026-05-07 16:53 | 52.50743 | 3.83860 | 7793 ft | 274 kts | 76° |
| 2026-05-07 16:54 | 52.51170 | 3.86897 | 7444 ft | 272 kts | 76° |
| 2026-05-07 16:54 | 52.51594 | 3.89901 | 7110 ft | 269 kts | 76° |
| 2026-05-07 16:54 | 52.51940 | 3.92892 | 6773 ft | 266 kts | 85° |
| 2026-05-07 16:54 | 52.51845 | 3.95906 | 6423 ft | 264 kts | 99° |
| 2026-05-07 16:55 | 52.51268 | 3.98752 | 6040 ft | 264 kts | 117° |
| 2026-05-07 16:55 | 52.50050 | 4.00976 | 5679 ft | 264 kts | 139° |
| 2026-05-07 16:55 | 52.48568 | 4.02772 | 5245 ft | 265 kts | 142° |
| 2026-05-07 16:55 | 52.47057 | 4.04491 | 4823 ft | 264 kts | 142° |
| 2026-05-07 16:56 | 52.45540 | 4.06184 | 4414 ft | 263 kts | 142° |
| 2026-05-07 16:56 | 52.44027 | 4.07848 | 3987 ft | 261 kts | 143° |
| 2026-05-07 16:56 | 52.41038 | 4.11117 | 3224 ft | 256 kts | 143° |
| 2026-05-07 16:57 | 52.39584 | 4.12702 | 3087 ft | 254 kts | 143° |
| 2026-05-07 16:57 | 52.38104 | 4.14310 | 3092 ft | 257 kts | 142° |
| 2026-05-07 16:57 | 52.36610 | 4.15942 | 3100 ft | 258 kts | 142° |
| 2026-05-07 16:57 | 52.35123 | 4.17576 | 3095 ft | 257 kts | 143° |
| 2026-05-07 16:58 | 52.33637 | 4.19200 | 3093 ft | 256 kts | 143° |
| 2026-05-07 16:58 | 52.32154 | 4.20816 | 3092 ft | 256 kts | 143° |
| 2026-05-07 16:58 | 52.30670 | 4.22432 | 3094 ft | 257 kts | 143° |
| 2026-05-07 16:58 | 52.29181 | 4.24051 | 3091 ft | 257 kts | 142° |
| 2026-05-07 16:59 | 52.27693 | 4.25671 | 3091 ft | 257 kts | 142° |
| 2026-05-07 16:59 | 52.26270 | 4.27412 | 3091 ft | 255 kts | 134° |
| 2026-05-07 16:59 | 52.24969 | 4.29381 | 3089 ft | 255 kts | 133° |
| 2026-05-07 16:59 | 52.23731 | 4.31440 | 3091 ft | 253 kts | 126° |
| 2026-05-07 17:00 | 52.22677 | 4.33684 | 3081 ft | 242 kts | 123° |
| 2026-05-07 17:00 | 52.21716 | 4.35812 | 3081 ft | 224 kts | 123° |
| 2026-05-07 17:00 | 52.20824 | 4.37785 | 3082 ft | 209 kts | 123° |
| 2026-05-07 17:00 | 52.19989 | 4.39616 | 3084 ft | 194 kts | 123° |
| 2026-05-07 17:01 | 52.19198 | 4.41345 | 3084 ft | 187 kts | 122° |
| 2026-05-07 17:01 | 52.18586 | 4.43172 | 3083 ft | 181 kts | 103° |
| 2026-05-07 17:01 | 52.18421 | 4.44485 | 3090 ft | 177 kts | 91° |
| 2026-05-07 17:01 | 52.18661 | 4.47072 | 3083 ft | 173 kts | 65° |
| 2026-05-07 17:02 | 52.19041 | 4.48211 | 3085 ft | 173 kts | 56° |
| 2026-05-07 17:02 | 52.19667 | 4.49818 | 3076 ft | 162 kts | 57° |
| 2026-05-07 17:02 | 52.20251 | 4.51320 | 3105 ft | 154 kts | 57° |
| 2026-05-07 17:02 | 52.20822 | 4.52789 | 3078 ft | 151 kts | 57° |
| 2026-05-07 17:03 | 52.21369 | 4.54199 | 2948 ft | 144 kts | 57° |
| 2026-05-07 17:03 | 52.21892 | 4.55548 | 2798 ft | 136 kts | 57° |
| 2026-05-07 17:03 | 52.22387 | 4.56827 | 2620 ft | 131 kts | 57° |
| 2026-05-07 17:03 | 52.22872 | 4.58078 | 2441 ft | 129 kts | 56° |
| 2026-05-07 17:04 | 52.23352 | 4.59319 | 2269 ft | 129 kts | 56° |
| 2026-05-07 17:04 | 52.23831 | 4.60556 | 2100 ft | 129 kts | 56° |
| 2026-05-07 17:04 | 52.24307 | 4.61786 | 1920 ft | 128 kts | 56° |
| 2026-05-07 17:04 | 52.24782 | 4.63013 | 1746 ft | 127 kts | 56° |
| 2026-05-07 17:05 | 52.25257 | 4.64231 | 1584 ft | 127 kts | 56° |
| 2026-05-07 17:05 | 52.25730 | 4.65449 | 1419 ft | 126 kts | 56° |
| 2026-05-07 17:05 | 52.26202 | 4.66664 | 1223 ft | 127 kts | 55° |
| 2026-05-07 17:05 | 52.26672 | 4.67881 | 1020 ft | 125 kts | 56° |
| 2026-05-07 17:06 | 52.27128 | 4.69076 | 782 ft | 129 kts | 56° |
| 2026-05-07 17:06 | 52.27605 | 4.70317 | 576 ft | 128 kts | 56° |
| 2026-05-07 17:06 | 52.28083 | 4.71575 | 335 ft | 132 kts | 57° |
| 2026-05-07 17:06 | 52.28574 | 4.72849 | 178 ft | 133 kts | 57° |
| 2026-05-07 17:07 | 52.29066 | 4.74129 | 5 ft | 130 kts | 57° |
| 2026-05-07 17:07 | 52.29477 | 4.75189 | -4 ft | 87 kts | 59° |
| 2026-05-07 17:07 | 52.29705 | 4.75786 | -3 ft | 40 kts | 57° |
| 2026-05-07 17:07 | 52.29834 | 4.76143 | -5 ft | 30 kts | 58° |
| 2026-05-07 17:08 | 52.29944 | 4.76416 | -4 ft | 27 kts | 56° |
| 2026-05-07 17:08 | 52.30045 | 4.76552 | -3 ft | 18 kts | 29° |
| 2026-05-07 17:08 | 52.30148 | 4.76642 | -3 ft | 11 kts | 27° |
| 2026-05-07 17:08 | 52.30205 | 4.76689 | -3 ft | 8 kts | 27° |
| 2026-05-07 17:09 | 52.30261 | 4.76737 | -3 ft | 10 kts | 27° |
| 2026-05-07 17:09 | 52.30315 | 4.76825 | -3 ft | 14 kts | 59° |
| 2026-05-07 17:09 | 52.30375 | 4.76985 | -3 ft | 18 kts | 58° |
| 2026-05-07 17:09 | 52.30444 | 4.77162 | -3 ft | 19 kts | 57° |
| 2026-05-07 17:10 | 52.30518 | 4.77355 | -3 ft | 21 kts | 59° |
| 2026-05-07 17:10 | 52.30601 | 4.77552 | -3 ft | 21 kts | 41° |
| 2026-05-07 17:10 | 52.30748 | 4.77599 | -3 ft | 22 kts | 4° |
| 2026-05-07 17:10 | 52.30908 | 4.77613 | -3 ft | 24 kts | 3° |
| 2026-05-07 17:11 | 52.31077 | 4.77629 | -3 ft | 25 kts | 4° |
| 2026-05-07 17:11 | 52.31253 | 4.77647 | -3 ft | 26 kts | 2° |
| 2026-05-07 17:11 | 52.31434 | 4.77646 | -3 ft | 26 kts | 344° |
| 2026-05-07 17:11 | 52.31569 | 4.77447 | -3 ft | 27 kts | 293° |
| 2026-05-07 17:12 | 52.31574 | 4.77128 | -3 ft | 29 kts | 267° |
| 2026-05-07 17:12 | 52.31561 | 4.76790 | -3 ft | 31 kts | 267° |
| 2026-05-07 17:12 | 52.31551 | 4.76434 | -3 ft | 32 kts | 267° |
| 2026-05-07 17:12 | 52.31537 | 4.76065 | -3 ft | 33 kts | 266° |
| 2026-05-07 17:13 | 52.31523 | 4.75689 | -3 ft | 31 kts | 265° |
| 2026-05-07 17:13 | 52.31506 | 4.75468 | -3 ft | 14 kts | 238° |
| 2026-05-07 17:13 | 52.31422 | 4.75440 | -3 ft | 12 kts | 177° |
| 2026-05-07 17:13 | 52.31344 | 4.75446 | -3 ft | 10 kts | 176° |
| 2026-05-07 17:14 | 52.31264 | 4.75454 | -3 ft | 13 kts | 176° |
| 2026-05-07 17:14 | 52.31175 | 4.75463 | -3 ft | 12 kts | 176° |
| 2026-05-07 17:14 | 52.31097 | 4.75470 | -3 ft | 10 kts | 164° |
| 2026-05-07 17:14 | 52.31058 | 4.75503 | -3 ft | 5 kts | 150° |
| 2026-05-07 17:15 | 52.31048 | 4.75512 | -3 ft | 0 kts | 150° |